createdAt,value
2023-05-12T00:00:30.417Z,40.22
2023-05-12T00:02:58.945Z,40.72
2023-05-12T00:05:27.582Z,41.10
2023-05-12T00:07:56.746Z,42.20
2023-05-12T00:10:25.341Z,40.38
2023-05-12T00:12:57.801Z,41.63
2023-05-12T00:15:26.156Z,41.35
2023-05-12T00:17:59.548Z,41.50
2023-05-12T00:20:27.938Z,40.78
2023-05-12T00:22:58.516Z,40.33
2023-05-12T00:25:26.696Z,40.33
2023-05-12T00:27:57.311Z,39.63
2023-05-12T00:30:25.840Z,40.50
2023-05-12T00:32:58.108Z,39.25
2023-05-12T00:35:26.508Z,40.83
2023-05-12T00:37:57.015Z,41.05
2023-05-12T00:40:26.482Z,40.13
2023-05-12T00:42:54.904Z,39.95
2023-05-12T00:45:23.937Z,39.10
2023-05-12T00:47:54.128Z,39.67
2023-05-12T00:50:26.775Z,39.38
2023-05-12T00:52:57.547Z,40.17
2023-05-12T00:55:26.798Z,40.22
2023-05-12T00:58:01.857Z,39.72
2023-05-12T01:00:30.456Z,40.40
2023-05-12T01:02:59.873Z,40.08
2023-05-12T01:05:33.440Z,38.72
2023-05-12T01:08:04.947Z,39.92
2023-05-12T01:10:33.533Z,38.47
2023-05-12T01:13:05.347Z,38.55
2023-05-12T01:15:34.200Z,37.50
2023-05-12T01:18:06.973Z,38.17
2023-05-12T01:20:37.135Z,37.95
2023-05-12T01:23:14.835Z,38.25
2023-05-12T01:25:44.537Z,38.05
2023-05-12T01:28:14.879Z,38.47
2023-05-12T01:30:44.914Z,38.15
2023-05-12T01:33:15.563Z,38.63
2023-05-12T01:35:44.051Z,37.20
2023-05-12T01:38:12.458Z,38.30
2023-05-12T01:40:40.997Z,38.20
2023-05-12T01:43:09.406Z,38.75
2023-05-12T01:45:38.876Z,36.67
2023-05-12T01:48:10.129Z,37.60
2023-05-12T01:50:38.527Z,36.90
2023-05-12T01:53:06.978Z,37.67
2023-05-12T01:55:37.904Z,37.38
2023-05-12T01:58:06.426Z,38.15
2023-05-12T02:00:34.802Z,38.75
2023-05-12T02:03:04.744Z,37.67
2023-05-12T02:05:33.091Z,39.80
2023-05-12T02:08:01.585Z,39.78
2023-05-12T02:10:30.570Z,39.85
2023-05-12T02:12:58.926Z,39.50
2023-05-12T02:15:27.324Z,38.92
2023-05-12T02:17:55.772Z,40.15
2023-05-12T02:20:25.714Z,39.28
2023-05-12T02:22:54.143Z,39.45
2023-05-12T02:25:22.681Z,38.55
2023-05-12T02:27:51.203Z,40.17
2023-05-12T02:30:19.992Z,40.72
2023-05-12T02:32:50.411Z,41.30
2023-05-12T02:35:19.020Z,41.35
2023-05-12T02:37:48.907Z,40.45
2023-05-12T02:40:18.093Z,41.85
2023-05-12T02:42:46.673Z,41.08
2023-05-12T02:45:16.214Z,40.40
2023-05-12T02:47:47.268Z,40.25
2023-05-12T02:50:17.238Z,39.92
2023-05-12T02:52:45.837Z,39.30
2023-05-12T02:55:15.795Z,39.83
2023-05-12T02:57:52.047Z,39.88
2023-05-12T03:00:20.636Z,39.65
2023-05-12T03:02:49.132Z,39.47
2023-05-12T03:05:17.545Z,40.35
2023-05-12T03:07:46.024Z,39.40
2023-05-12T03:10:20.320Z,40.38
2023-05-12T03:12:48.955Z,40.35
2023-05-12T03:15:17.553Z,42.65
2023-05-12T03:17:45.940Z,42.10
2023-05-12T03:20:14.506Z,41.15
2023-05-12T03:22:43.284Z,40.85
2023-05-12T03:25:11.838Z,39.35
2023-05-12T03:27:41.426Z,39.67
2023-05-12T03:30:11.184Z,37.63
2023-05-12T03:32:40.327Z,37.90
2023-05-12T03:35:10.634Z,36.53
2023-05-12T03:37:39.376Z,35.15
2023-05-12T03:40:08.660Z,35.67
2023-05-12T03:42:37.024Z,35.65
2023-05-12T03:45:08.132Z,34.33
2023-05-12T03:47:37.620Z,34.00
2023-05-12T03:50:06.708Z,33.25
2023-05-12T03:52:35.226Z,33.67
2023-05-12T03:55:07.471Z,33.13
2023-05-12T03:57:37.740Z,31.55
2023-05-12T04:00:08.821Z,31.48
2023-05-12T04:02:37.126Z,30.90
2023-05-12T04:05:08.194Z,30.17
2023-05-12T04:07:39.534Z,28.48
2023-05-12T04:10:09.233Z,28.70
2023-05-12T04:12:40.598Z,28.13
2023-05-12T04:15:11.912Z,27.77
2023-05-12T04:17:40.272Z,28.10
2023-05-12T04:20:09.657Z,26.63
2023-05-12T04:22:37.766Z,27.25
2023-05-12T04:25:06.934Z,28.67
2023-05-12T04:27:35.241Z,27.40
2023-05-12T04:30:06.764Z,27.67
2023-05-12T04:32:36.572Z,27.38
2023-05-12T04:35:05.311Z,27.65
2023-05-12T04:37:33.810Z,28.50
2023-05-12T04:40:02.556Z,28.95
2023-05-12T04:42:30.828Z,28.13
2023-05-12T04:44:59.232Z,28.45
2023-05-12T04:47:27.503Z,28.77
2023-05-12T04:49:59.399Z,28.80
2023-05-12T04:52:28.116Z,29.63
2023-05-12T04:54:56.750Z,29.20
2023-05-12T04:57:25.146Z,29.00
2023-05-12T04:59:55.821Z,30.00
2023-05-12T05:02:24.664Z,29.40
2023-05-12T05:04:53.788Z,29.58
2023-05-12T05:07:26.269Z,30.50
2023-05-12T05:09:57.304Z,31.02
2023-05-12T05:12:30.988Z,28.88
2023-05-12T05:15:01.095Z,28.85
2023-05-12T05:17:30.340Z,30.63
2023-05-12T05:19:59.892Z,30.15
2023-05-12T05:22:30.338Z,29.60
2023-05-12T05:25:03.968Z,29.73
2023-05-12T05:27:32.308Z,30.25
2023-05-12T05:30:00.679Z,30.67
2023-05-12T05:32:31.892Z,29.90
2023-05-12T05:35:05.985Z,30.48
2023-05-12T05:37:36.255Z,30.90
2023-05-12T05:40:04.925Z,30.02
2023-05-12T05:42:41.087Z,30.23
2023-05-12T05:45:11.055Z,30.90
2023-05-12T05:47:40.669Z,31.85
2023-05-12T05:50:10.104Z,31.55
2023-05-12T05:52:39.836Z,32.38
2023-05-12T05:55:10.783Z,31.75
2023-05-12T05:57:42.115Z,34.40
2023-05-12T06:00:12.651Z,35.60
2023-05-12T06:02:41.749Z,42.92
2023-05-12T06:05:14.534Z,38.90
2023-05-12T06:07:44.449Z,41.85
2023-05-12T06:10:16.105Z,45.67
2023-05-12T06:12:44.485Z,43.42
2023-05-12T06:15:13.293Z,52.28
2023-05-12T06:17:41.979Z,51.65
2023-05-12T06:20:11.048Z,52.92
2023-05-12T06:22:39.367Z,57.13
2023-05-12T06:25:15.983Z,58.67
2023-05-12T06:27:48.542Z,58.47
2023-05-12T06:30:24.024Z,54.15
2023-05-12T06:32:59.086Z,57.00
2023-05-12T06:35:27.945Z,62.25
2023-05-12T06:37:58.669Z,52.28
2023-05-12T06:40:28.442Z,54.92
2023-05-12T06:42:58.911Z,47.58
2023-05-12T06:45:29.870Z,51.97
2023-05-12T06:48:01.799Z,54.55
2023-05-12T06:50:30.018Z,47.30
2023-05-12T06:53:01.258Z,43.15
2023-05-12T06:55:32.332Z,45.67
2023-05-12T06:58:00.917Z,40.95
2023-05-12T07:00:29.169Z,44.35
2023-05-12T07:02:58.095Z,44.10
2023-05-12T07:05:26.392Z,42.72
2023-05-12T07:07:54.617Z,40.47
2023-05-12T07:10:23.075Z,42.05
2023-05-12T07:12:53.012Z,39.08
2023-05-12T07:15:21.699Z,40.03
2023-05-12T07:17:50.490Z,38.40
2023-05-12T07:20:18.758Z,39.22
2023-05-12T07:22:47.030Z,38.63
2023-05-12T07:25:16.075Z,40.33
2023-05-12T07:27:44.573Z,40.58
2023-05-12T07:30:14.931Z,39.03
2023-05-12T07:32:43.482Z,40.05
2023-05-12T07:35:12.707Z,39.22
2023-05-12T07:37:41.442Z,40.80
2023-05-12T07:40:10.360Z,42.38
2023-05-12T07:42:39.076Z,41.30
2023-05-12T07:45:08.135Z,40.78
2023-05-12T07:47:38.238Z,42.05
2023-05-12T07:50:08.518Z,41.58
2023-05-12T07:52:36.817Z,43.10
2023-05-12T07:55:05.420Z,41.55
2023-05-12T07:57:36.186Z,42.90
2023-05-12T08:00:08.677Z,42.00
2023-05-12T08:02:44.950Z,42.10
2023-05-12T08:05:16.633Z,42.58
2023-05-12T08:07:49.265Z,42.47
2023-05-12T08:10:17.755Z,43.45
2023-05-12T08:12:54.980Z,43.63
2023-05-12T08:15:25.541Z,42.63
2023-05-12T08:17:56.944Z,44.20
2023-05-12T08:20:28.261Z,43.92
2023-05-12T08:23:07.036Z,42.33
2023-05-12T08:25:38.296Z,42.50
2023-05-12T08:28:09.591Z,43.88
2023-05-12T08:30:40.065Z,43.60
2023-05-12T08:33:28.150Z,43.88
2023-05-12T08:36:00.499Z,44.05
2023-05-12T08:38:35.948Z,44.28
2023-05-12T08:41:19.180Z,44.65
2023-05-12T08:43:52.671Z,43.75
2023-05-12T08:46:24.928Z,45.22
2023-05-12T08:49:01.893Z,44.25
2023-05-12T08:51:38.468Z,46.13
2023-05-12T08:54:10.682Z,45.20
2023-05-12T08:59:34.736Z,45.55
2023-05-12T09:02:13.954Z,46.03
2023-05-12T09:04:51.772Z,44.90
2023-05-12T09:07:30.274Z,46.58
2023-05-12T09:10:05.408Z,45.40
2023-05-12T09:12:42.864Z,46.72
2023-05-12T09:15:24.202Z,45.33
2023-05-12T09:17:53.031Z,45.50
2023-05-12T09:20:30.846Z,46.95
2023-05-12T09:23:03.412Z,45.90
2023-05-12T09:25:32.568Z,46.38
2023-05-12T09:28:06.161Z,46.47
2023-05-12T09:30:38.518Z,46.75
2023-05-12T09:33:08.486Z,47.30
2023-05-12T09:35:48.998Z,46.38
2023-05-12T09:38:22.964Z,46.75
2023-05-12T09:40:51.578Z,46.50
2023-05-12T09:43:28.944Z,47.33
2023-05-12T09:46:08.250Z,47.83
2023-05-12T09:48:36.938Z,48.58
2023-05-12T09:51:17.905Z,47.33
2023-05-12T09:53:47.035Z,48.50
2023-05-12T09:56:18.320Z,46.28
2023-05-12T09:58:51.555Z,47.72
2023-05-12T10:01:23.878Z,46.22
2023-05-12T10:03:54.876Z,46.92
2023-05-12T10:06:28.312Z,46.80
2023-05-12T10:09:04.916Z,47.53
2023-05-12T10:11:33.751Z,48.85
2023-05-12T10:14:03.673Z,48.50
2023-05-12T10:16:33.211Z,48.55
2023-05-12T10:19:01.847Z,47.55
2023-05-12T10:21:35.465Z,48.30
2023-05-12T10:24:05.130Z,48.53
2023-05-12T10:26:35.132Z,49.97
2023-05-12T10:29:03.768Z,51.05
2023-05-12T10:31:32.212Z,51.50
2023-05-12T10:34:01.257Z,50.70
2023-05-12T10:36:31.191Z,52.05
2023-05-12T10:39:07.021Z,52.72
2023-05-12T10:41:36.700Z,52.65
2023-05-12T10:44:05.222Z,52.08
2023-05-12T10:46:34.428Z,51.38
2023-05-12T10:49:06.695Z,54.83
2023-05-12T10:51:48.885Z,56.50
2023-05-12T10:54:22.345Z,55.97
2023-05-12T10:56:50.827Z,56.83
2023-05-12T10:59:20.732Z,55.15
2023-05-12T11:02:01.301Z,54.67
2023-05-12T11:04:44.939Z,56.70
2023-05-12T11:07:20.309Z,56.92
2023-05-12T11:09:58.580Z,56.72
2023-05-12T11:12:32.508Z,57.72
2023-05-12T11:15:02.115Z,52.10
2023-05-12T11:17:30.610Z,55.22
2023-05-12T11:20:00.927Z,55.13
2023-05-12T11:22:30.564Z,55.40
2023-05-12T11:24:58.771Z,56.35
2023-05-12T11:27:27.013Z,55.67
2023-05-12T11:30:03.122Z,56.75
2023-05-12T11:32:31.315Z,51.38
2023-05-12T11:35:10.674Z,53.88
2023-05-12T11:37:43.781Z,60.50
2023-05-12T11:40:19.358Z,59.13
2023-05-12T11:42:51.691Z,61.53
2023-05-12T11:45:28.861Z,60.80
2023-05-12T11:48:08.941Z,61.55
2023-05-12T11:50:40.841Z,57.83
2023-05-12T11:53:15.030Z,45.70
2023-05-12T11:55:49.597Z,45.90
2023-05-12T11:58:22.339Z,42.92
2023-05-12T12:00:52.041Z,43.15
2023-05-12T12:03:20.541Z,42.33
2023-05-12T12:05:59.580Z,42.33
2023-05-12T12:08:29.974Z,43.67
2023-05-12T12:10:58.984Z,44.95
2023-05-12T12:13:28.077Z,42.13
2023-05-12T12:15:56.731Z,43.20
2023-05-12T12:18:25.158Z,39.15
2023-05-12T12:20:53.382Z,41.05
2023-05-12T12:23:21.885Z,41.30
2023-05-12T12:25:51.906Z,40.17
2023-05-12T12:28:20.522Z,38.17
2023-05-12T12:30:49.143Z,34.40
2023-05-12T12:33:20.197Z,8.07
2023-05-12T12:35:48.969Z,4.07
2023-05-12T12:38:17.533Z,4.03
2023-05-12T12:40:45.912Z,6.53
2023-05-12T12:43:15.506Z,2.60
2023-05-12T12:45:43.620Z,4.22
2023-05-12T12:48:11.816Z,5.70
2023-05-12T12:50:40.010Z,3.72
2023-05-12T12:53:09.226Z,8.15
2023-05-12T12:55:37.301Z,3.22
2023-05-12T12:58:05.455Z,3.65
2023-05-12T13:00:36.119Z,7.30
2023-05-12T13:03:04.370Z,7.55
2023-05-12T13:05:32.509Z,4.10
2023-05-12T13:08:00.981Z,3.08
2023-05-12T13:10:29.167Z,4.50
2023-05-12T13:12:57.441Z,2.70
2023-05-12T13:15:28.908Z,2.47
2023-05-12T13:17:58.437Z,5.50
2023-05-12T13:20:27.118Z,9.98
2023-05-12T13:22:55.500Z,12.00
2023-05-12T13:25:26.435Z,12.60
2023-05-12T13:27:54.675Z,10.10
2023-05-12T13:30:25.201Z,11.82
2023-05-12T13:32:56.000Z,10.45
2023-05-12T13:35:25.660Z,8.95
2023-05-12T13:37:54.560Z,11.27
2023-05-12T13:40:23.119Z,13.70
2023-05-12T13:43:03.042Z,11.38
2023-05-12T13:45:31.594Z,10.85
2023-05-12T13:48:00.158Z,11.40
2023-05-12T13:50:33.669Z,12.38
2023-05-12T13:53:06.147Z,12.02
2023-05-12T13:55:39.959Z,10.90
2023-05-12T13:58:15.257Z,10.55
2023-05-12T14:00:45.101Z,11.70
2023-05-12T14:03:17.292Z,12.45
2023-05-12T14:05:47.117Z,11.18
2023-05-12T14:08:15.211Z,12.57
2023-05-12T14:10:44.460Z,12.07
2023-05-12T14:13:13.829Z,13.48
2023-05-12T14:15:49.188Z,11.60
2023-05-12T14:18:18.246Z,12.40
2023-05-12T14:20:48.214Z,11.63
2023-05-12T14:23:16.802Z,12.95
2023-05-12T14:25:45.021Z,11.77
2023-05-12T14:28:13.551Z,13.55
2023-05-12T14:30:43.373Z,13.68
2023-05-12T14:33:12.428Z,15.05
2023-05-12T14:35:40.572Z,13.65
2023-05-12T14:38:10.269Z,14.65
2023-05-12T14:40:40.224Z,12.55
2023-05-12T14:43:10.741Z,14.55
2023-05-12T14:45:42.126Z,12.75
2023-05-12T14:48:10.413Z,12.00
2023-05-12T14:50:40.263Z,13.35
2023-05-12T14:53:11.142Z,11.05
2023-05-12T14:55:39.432Z,12.25
2023-05-12T14:58:07.588Z,13.63
2023-05-12T15:00:38.435Z,12.43
2023-05-12T15:03:08.344Z,14.35
2023-05-12T15:05:56.753Z,12.50
2023-05-12T15:08:26.721Z,12.93
2023-05-12T15:10:54.914Z,13.32
2023-05-12T15:13:23.112Z,28.75
2023-05-12T15:15:55.077Z,15.50
2023-05-12T15:18:24.672Z,13.15
2023-05-12T15:20:54.138Z,13.57
2023-05-12T15:23:22.380Z,12.48
2023-05-12T15:25:53.296Z,13.18
2023-05-12T15:28:21.848Z,12.10
2023-05-12T15:30:56.985Z,10.55
2023-05-12T15:33:26.023Z,10.80
2023-05-12T15:36:00.207Z,8.48
2023-05-12T15:38:28.901Z,10.70
2023-05-12T15:41:01.150Z,9.18
2023-05-12T15:43:30.574Z,8.50
2023-05-12T15:45:58.844Z,10.60
2023-05-12T15:48:33.285Z,12.15
2023-05-12T15:51:04.273Z,11.63
2023-05-12T15:53:32.963Z,11.63
2023-05-12T15:56:03.637Z,11.50
2023-05-12T15:58:32.089Z,10.90
2023-05-12T16:01:00.729Z,9.60
2023-05-12T16:03:28.857Z,10.52
2023-05-12T16:05:57.509Z,10.95
2023-05-12T16:08:25.542Z,10.90
2023-05-12T16:10:53.780Z,11.07
2023-05-12T16:13:23.248Z,8.57
2023-05-12T16:16:02.789Z,9.35
2023-05-12T16:18:31.955Z,8.98
2023-05-12T16:21:02.332Z,8.80
2023-05-12T16:23:30.743Z,11.73
2023-05-12T16:25:59.390Z,9.32
2023-05-12T16:28:29.216Z,8.52
2023-05-12T16:30:58.004Z,9.98
2023-05-12T16:33:26.345Z,8.15
2023-05-12T16:35:54.601Z,9.35
2023-05-12T16:38:22.971Z,8.88
2023-05-12T16:40:51.662Z,10.38
2023-05-12T16:43:20.046Z,9.45
2023-05-12T16:46:00.116Z,10.05
2023-05-12T16:48:35.603Z,10.65
2023-05-12T16:51:06.700Z,9.10
2023-05-12T16:53:37.797Z,11.40
2023-05-12T16:56:06.363Z,12.50
2023-05-12T16:58:36.333Z,18.15
2023-05-12T17:01:06.502Z,16.35
2023-05-12T17:03:36.933Z,8.95
2023-05-12T17:06:05.494Z,10.07
2023-05-12T17:08:39.168Z,9.88
2023-05-12T17:11:08.183Z,8.38
2023-05-12T17:13:39.292Z,4.72
2023-05-12T17:16:19.294Z,7.30
2023-05-12T17:21:18.659Z,3.63
2023-05-12T17:23:47.297Z,3.45
2023-05-12T17:26:15.897Z,5.03
2023-05-12T17:29:10.036Z,2.85
2023-05-12T17:31:39.916Z,3.90
2023-05-12T17:34:11.019Z,4.63
2023-05-12T17:36:39.255Z,5.95
2023-05-12T17:39:09.550Z,4.38
2023-05-12T17:41:41.183Z,5.25
2023-05-12T17:44:16.904Z,3.42
2023-05-12T17:46:54.134Z,6.10
2023-05-12T17:49:25.120Z,4.68
2023-05-12T17:51:55.558Z,4.32
2023-05-12T17:54:30.888Z,5.10
2023-05-12T17:56:59.784Z,3.80
2023-05-12T17:59:28.457Z,3.67
2023-05-12T18:01:59.051Z,4.60
2023-05-12T18:04:27.262Z,5.47
2023-05-12T18:06:55.592Z,5.38
2023-05-12T18:09:24.681Z,4.85
2023-05-12T18:11:53.482Z,5.72
2023-05-12T18:14:24.618Z,4.13
2023-05-12T18:16:53.038Z,5.47
2023-05-12T18:19:23.163Z,4.38
2023-05-12T18:22:02.866Z,4.13
2023-05-12T18:24:31.153Z,4.38
2023-05-12T18:26:59.489Z,5.60
2023-05-12T18:29:27.898Z,4.65
2023-05-12T18:31:56.613Z,4.70
2023-05-12T18:34:26.310Z,5.30
2023-05-12T18:36:59.301Z,6.32
2023-05-12T18:39:27.750Z,7.50
2023-05-12T18:41:56.857Z,4.88
2023-05-12T18:44:25.316Z,9.25
2023-05-12T18:46:59.715Z,4.10
2023-05-12T18:49:30.709Z,6.20
2023-05-12T18:51:58.972Z,8.15
2023-05-12T18:54:27.368Z,6.22
2023-05-12T18:57:03.790Z,7.70
2023-05-12T18:59:34.041Z,7.10
2023-05-12T19:02:03.978Z,8.32
2023-05-12T19:04:33.875Z,6.88
2023-05-12T19:07:07.717Z,7.13
2023-05-12T19:09:43.500Z,8.93
2023-05-12T19:12:12.411Z,7.05
2023-05-12T19:14:43.295Z,8.07
2023-05-12T19:17:12.187Z,8.70
2023-05-12T19:19:45.072Z,9.52
2023-05-12T19:22:13.321Z,10.57
2023-05-12T19:24:42.378Z,10.50
2023-05-12T19:27:13.617Z,10.82
2023-05-12T19:29:41.765Z,12.05
2023-05-12T19:32:10.131Z,14.07
2023-05-12T19:34:38.513Z,11.65
2023-05-12T19:37:08.309Z,11.18
2023-05-12T19:39:37.429Z,12.68
2023-05-12T19:42:08.521Z,12.35
2023-05-12T19:44:36.673Z,14.07
2023-05-12T19:47:05.401Z,11.68
2023-05-12T19:49:34.908Z,12.35
2023-05-12T19:52:03.564Z,13.48
2023-05-12T19:54:33.673Z,14.05
2023-05-12T19:57:01.897Z,13.00
2023-05-12T19:59:30.395Z,14.23
2023-05-12T20:01:59.088Z,21.02
2023-05-12T20:04:27.373Z,34.60
2023-05-12T20:06:57.410Z,45.83
2023-05-12T20:09:26.212Z,50.60
2023-05-12T20:11:59.294Z,54.22
2023-05-12T20:14:27.854Z,55.35
2023-05-12T20:17:05.498Z,58.85
2023-05-12T20:19:34.459Z,57.53
2023-05-12T20:22:02.898Z,61.85
2023-05-12T20:24:31.788Z,62.15
2023-05-12T20:27:03.665Z,61.47
2023-05-12T20:29:32.009Z,61.55
2023-05-12T20:32:00.539Z,62.67
2023-05-12T20:34:29.100Z,62.70
2023-05-12T20:36:57.627Z,61.35
2023-05-12T20:39:29.198Z,61.17
2023-05-12T20:42:07.111Z,63.40
2023-05-12T20:44:37.267Z,61.55
2023-05-12T20:47:05.679Z,61.80
2023-05-12T20:49:33.949Z,62.58
2023-05-12T20:52:02.443Z,61.78
2023-05-12T20:54:30.847Z,63.92
2023-05-12T20:56:59.287Z,63.17
2023-05-12T20:59:31.819Z,63.30
2023-05-12T21:02:02.103Z,61.38
2023-05-12T21:04:30.502Z,61.30
2023-05-12T21:06:58.723Z,62.20
2023-05-12T21:09:27.138Z,61.42
2023-05-12T21:11:55.848Z,61.22
2023-05-12T21:14:23.967Z,60.58
2023-05-12T21:16:52.529Z,61.40
2023-05-12T21:19:22.393Z,58.72
2023-05-12T21:21:50.836Z,59.53
2023-05-12T21:24:18.914Z,58.47
2023-05-12T21:26:47.180Z,57.58
2023-05-12T21:29:15.454Z,58.15
2023-05-12T21:31:45.888Z,57.25
2023-05-12T21:35:03.076Z,55.90
2023-05-12T21:37:32.755Z,56.08
2023-05-12T21:40:01.652Z,54.53
2023-05-12T21:42:29.934Z,55.97
2023-05-12T21:44:58.631Z,55.40
2023-05-12T21:47:27.092Z,54.53
2023-05-12T21:49:56.360Z,55.97
2023-05-12T21:52:26.450Z,54.50
2023-05-12T21:54:56.868Z,54.65
2023-05-12T21:57:25.282Z,55.75
2023-05-12T21:59:53.845Z,54.13
2023-05-12T22:02:22.511Z,52.53
2023-05-12T22:04:50.681Z,53.45
2023-05-12T22:07:19.021Z,53.08
2023-05-12T22:09:47.360Z,53.88
2023-05-12T22:12:18.620Z,54.88
2023-05-12T22:14:46.875Z,55.45
2023-05-12T22:17:15.162Z,55.90
2023-05-12T22:19:43.415Z,55.53
2023-05-12T22:22:13.858Z,55.75
2023-05-12T22:24:48.013Z,57.85
2023-05-12T22:27:21.245Z,56.42
2023-05-12T22:29:49.663Z,56.35
2023-05-12T22:32:17.866Z,56.38
2023-05-12T22:34:47.993Z,57.45
2023-05-12T22:37:16.473Z,56.95
2023-05-12T22:39:44.816Z,57.25
2023-05-12T22:42:13.310Z,57.10
2023-05-12T22:44:43.048Z,57.95
2023-05-12T22:47:11.524Z,57.85
2023-05-12T22:49:40.858Z,57.45
2023-05-12T22:52:09.108Z,57.47
2023-05-12T22:54:37.594Z,57.17
2023-05-12T22:57:07.526Z,58.45
2023-05-12T22:59:36.012Z,59.35
2023-05-12T23:02:05.994Z,59.63
2023-05-12T23:04:34.341Z,57.42
2023-05-12T23:07:02.689Z,58.25
2023-05-12T23:09:31.067Z,59.65
2023-05-12T23:12:15.017Z,58.95
2023-05-12T23:14:43.310Z,59.58
2023-05-12T23:17:13.061Z,57.90
2023-05-12T23:19:41.489Z,57.45
2023-05-12T23:22:13.022Z,57.17
2023-05-12T23:24:41.462Z,56.70
2023-05-12T23:27:09.705Z,56.33
2023-05-12T23:29:37.979Z,56.00
2023-05-12T23:32:06.668Z,56.80
2023-05-12T23:34:36.555Z,56.60
2023-05-12T23:37:04.630Z,56.60
2023-05-12T23:39:32.919Z,56.17
2023-05-12T23:42:01.744Z,57.65
2023-05-12T23:44:30.033Z,56.42
2023-05-12T23:47:01.435Z,55.90
2023-05-12T23:49:29.770Z,54.55
2023-05-12T23:51:59.461Z,55.83
2023-05-12T23:54:28.721Z,55.40
2023-05-12T23:56:57.133Z,55.30
2023-05-12T23:59:25.871Z,54.28
